Terminal Aerodrome Forecast
Issued by NWS

Home | Current Version | Previous Version | Text Only | Print | Product List | Glossary On
Versions: 1 2 3 4 5 6 7 8 9 10 11 12 13 14 15 16 17 18 19 20
000
FTUS43 KJKL 292152 AAA
TAFSJS
TAF AMD
KSJS 292152Z 2922/3018 29007KT P6SM BKN250
     FM300300 VRB03KT P6SM BKN100
     FM301200 05003KT P6SM VCSH FEW050 BKN080
     FM301300 05005KT 6SM -SHRA BR BKN060=

USA.gov is the U.S. government's official web portal to all federal, state and local government web resources and services.